sensor_id;sensor_type;location;lat;lon;timestamp;P1;durP1;ratioP1;P2;durP2;ratioP2
18188;SDS011;9219;50.396;8.546;2023-08-24T00:03:52;6.20;;;2.30;;
18188;SDS011;9219;50.396;8.546;2023-08-24T00:06:19;3.70;;;2.30;;
18188;SDS011;9219;50.396;8.546;2023-08-24T00:08:47;2.40;;;1.80;;
18188;SDS011;9219;50.396;8.546;2023-08-24T00:11:14;2.33;;;1.90;;
18188;SDS011;9219;50.396;8.546;2023-08-24T00:13:41;2.50;;;1.90;;
18188;SDS011;9219;50.396;8.546;2023-08-24T00:16:14;2.27;;;1.40;;
18188;SDS011;9219;50.396;8.546;2023-08-24T00:18:42;10.00;;;3.73;;
18188;SDS011;9219;50.396;8.546;2023-08-24T00:21:37;3.50;;;2.73;;
18188;SDS011;9219;50.396;8.546;2023-08-24T00:24:04;3.43;;;2.23;;
18188;SDS011;9219;50.396;8.546;2023-08-24T00:26:32;4.40;;;2.50;;
18188;SDS011;9219;50.396;8.546;2023-08-24T00:28:59;2.80;;;2.47;;
18188;SDS011;9219;50.396;8.546;2023-08-24T00:31:26;2.93;;;2.17;;
18188;SDS011;9219;50.396;8.546;2023-08-24T00:33:54;3.70;;;2.47;;
18188;SDS011;9219;50.396;8.546;2023-08-24T00:36:23;3.43;;;2.23;;
18188;SDS011;9219;50.396;8.546;2023-08-24T00:43:53;12.20;;;2.70;;
18188;SDS011;9219;50.396;8.546;2023-08-24T00:46:20;2.47;;;2.00;;
18188;SDS011;9219;50.396;8.546;2023-08-24T00:48:49;3.37;;;2.23;;
18188;SDS011;9219;50.396;8.546;2023-08-24T00:51:17;4.90;;;2.70;;
18188;SDS011;9219;50.396;8.546;2023-08-24T00:53:45;5.37;;;2.13;;
18188;SDS011;9219;50.396;8.546;2023-08-24T00:56:12;5.43;;;2.23;;
18188;SDS011;9219;50.396;8.546;2023-08-24T00:58:39;10.37;;;2.57;;
18188;SDS011;9219;50.396;8.546;2023-08-24T01:06:17;3.97;;;2.37;;
18188;SDS011;9219;50.396;8.546;2023-08-24T01:08:47;4.47;;;2.47;;
18188;SDS011;9219;50.396;8.546;2023-08-24T01:11:32;6.77;;;1.90;;
18188;SDS011;9219;50.396;8.546;2023-08-24T01:14:19;7.70;;;2.20;;
18188;SDS011;9219;50.396;8.546;2023-08-24T01:16:55;4.07;;;2.63;;
18188;SDS011;9219;50.396;8.546;2023-08-24T01:19:34;4.13;;;2.10;;
18188;SDS011;9219;50.396;8.546;2023-08-24T01:22:23;3.27;;;2.00;;
18188;SDS011;9219;50.396;8.546;2023-08-24T01:25:01;3.97;;;1.77;;
18188;SDS011;9219;50.396;8.546;2023-08-24T01:42:29;4.23;;;2.33;;
18188;SDS011;9219;50.396;8.546;2023-08-24T01:45:00;2.30;;;2.07;;
18188;SDS011;9219;50.396;8.546;2023-08-24T01:47:40;3.57;;;2.20;;
18188;SDS011;9219;50.396;8.546;2023-08-24T01:50:09;3.73;;;2.00;;
18188;SDS011;9219;50.396;8.546;2023-08-24T01:52:37;2.20;;;1.70;;
18188;SDS011;9219;50.396;8.546;2023-08-24T01:55:05;2.30;;;2.10;;
18188;SDS011;9219;50.396;8.546;2023-08-24T01:57:38;7.03;;;2.13;;
18188;SDS011;9219;50.396;8.546;2023-08-24T02:05:10;3.17;;;2.40;;
18188;SDS011;9219;50.396;8.546;2023-08-24T02:07:41;5.87;;;2.10;;
18188;SDS011;9219;50.396;8.546;2023-08-24T02:10:13;5.07;;;2.33;;
18188;SDS011;9219;50.396;8.546;2023-08-24T02:12:42;4.17;;;1.93;;
18188;SDS011;9219;50.396;8.546;2023-08-24T02:15:15;3.67;;;2.03;;
18188;SDS011;9219;50.396;8.546;2023-08-24T02:17:49;3.63;;;1.97;;
18188;SDS011;9219;50.396;8.546;2023-08-24T02:20:19;4.70;;;3.40;;
18188;SDS011;9219;50.396;8.546;2023-08-24T02:27:51;3.33;;;2.20;;
18188;SDS011;9219;50.396;8.546;2023-08-24T02:30:18;4.13;;;1.90;;
18188;SDS011;9219;50.396;8.546;2023-08-24T02:32:49;2.97;;;2.10;;
18188;SDS011;9219;50.396;8.546;2023-08-24T02:35:17;4.83;;;2.33;;
18188;SDS011;9219;50.396;8.546;2023-08-24T02:37:45;3.17;;;2.00;;
18188;SDS011;9219;50.396;8.546;2023-08-24T02:40:16;4.77;;;2.47;;
18188;SDS011;9219;50.396;8.546;2023-08-24T02:42:45;5.17;;;2.47;;
18188;SDS011;9219;50.396;8.546;2023-08-24T02:50:15;4.53;;;2.90;;
18188;SDS011;9219;50.396;8.546;2023-08-24T02:52:43;6.60;;;2.80;;
18188;SDS011;9219;50.396;8.546;2023-08-24T02:55:11;3.33;;;2.67;;
18188;SDS011;9219;50.396;8.546;2023-08-24T02:57:38;5.30;;;3.23;;
18188;SDS011;9219;50.396;8.546;2023-08-24T03:00:06;7.77;;;2.80;;
18188;SDS011;9219;50.396;8.546;2023-08-24T03:02:37;5.40;;;2.77;;
18188;SDS011;9219;50.396;8.546;2023-08-24T03:05:05;5.10;;;2.70;;
18188;SDS011;9219;50.396;8.546;2023-08-24T03:10:27;3.53;;;2.80;;
18188;SDS011;9219;50.396;8.546;2023-08-24T03:12:57;3.13;;;2.37;;
18188;SDS011;9219;50.396;8.546;2023-08-24T03:15:24;2.93;;;2.33;;
18188;SDS011;9219;50.396;8.546;2023-08-24T03:17:52;4.77;;;3.03;;
18188;SDS011;9219;50.396;8.546;2023-08-24T03:20:19;3.10;;;2.70;;
18188;SDS011;9219;50.396;8.546;2023-08-24T03:22:48;5.67;;;2.60;;
18188;SDS011;9219;50.396;8.546;2023-08-24T03:25:15;5.17;;;3.23;;
18188;SDS011;9219;50.396;8.546;2023-08-24T03:27:45;2.83;;;2.23;;
18188;SDS011;9219;50.396;8.546;2023-08-24T03:30:44;6.73;;;2.43;;
18188;SDS011;9219;50.396;8.546;2023-08-24T03:33:14;4.10;;;2.70;;
18188;SDS011;9219;50.396;8.546;2023-08-24T03:35:42;4.37;;;2.27;;
18188;SDS011;9219;50.396;8.546;2023-08-24T03:38:09;3.67;;;2.63;;
18188;SDS011;9219;50.396;8.546;2023-08-24T03:40:39;14.53;;;2.77;;
18188;SDS011;9219;50.396;8.546;2023-08-24T03:43:12;3.80;;;2.73;;
18188;SDS011;9219;50.396;8.546;2023-08-24T03:45:40;2.63;;;2.13;;
18188;SDS011;9219;50.396;8.546;2023-08-24T03:50:53;3.77;;;2.53;;
18188;SDS011;9219;50.396;8.546;2023-08-24T03:53:21;2.97;;;2.30;;
18188;SDS011;9219;50.396;8.546;2023-08-24T03:55:51;4.83;;;2.03;;
18188;SDS011;9219;50.396;8.546;2023-08-24T03:58:18;3.77;;;2.07;;
18188;SDS011;9219;50.396;8.546;2023-08-24T04:00:46;5.87;;;2.37;;
18188;SDS011;9219;50.396;8.546;2023-08-24T04:03:13;2.50;;;1.77;;
18188;SDS011;9219;50.396;8.546;2023-08-24T04:05:43;2.63;;;2.07;;
18188;SDS011;9219;50.396;8.546;2023-08-24T04:11:02;2.80;;;2.00;;
18188;SDS011;9219;50.396;8.546;2023-08-24T04:13:30;4.50;;;2.20;;
18188;SDS011;9219;50.396;8.546;2023-08-24T04:15:58;4.70;;;1.90;;
18188;SDS011;9219;50.396;8.546;2023-08-24T04:18:25;3.87;;;2.27;;
18188;SDS011;9219;50.396;8.546;2023-08-24T04:20:52;5.93;;;2.30;;
18188;SDS011;9219;50.396;8.546;2023-08-24T04:23:23;2.87;;;1.83;;
18188;SDS011;9219;50.396;8.546;2023-08-24T04:25:52;2.77;;;2.10;;
18188;SDS011;9219;50.396;8.546;2023-08-24T04:28:25;2.87;;;2.13;;
18188;SDS011;9219;50.396;8.546;2023-08-24T04:30:56;4.40;;;2.73;;
18188;SDS011;9219;50.396;8.546;2023-08-24T04:38:32;2.17;;;1.83;;
18188;SDS011;9219;50.396;8.546;2023-08-24T04:40:59;2.47;;;2.13;;
18188;SDS011;9219;50.396;8.546;2023-08-24T04:43:27;4.43;;;2.00;;
18188;SDS011;9219;50.396;8.546;2023-08-24T04:45:54;3.47;;;2.03;;
18188;SDS011;9219;50.396;8.546;2023-08-24T04:48:24;3.43;;;2.17;;
18188;SDS011;9219;50.396;8.546;2023-08-24T04:50:52;2.47;;;1.50;;
18188;SDS011;9219;50.396;8.546;2023-08-24T04:53:22;4.60;;;2.57;;
18188;SDS011;9219;50.396;8.546;2023-08-24T04:58:52;3.83;;;1.57;;
18188;SDS011;9219;50.396;8.546;2023-08-24T05:01:20;3.93;;;1.57;;
18188;SDS011;9219;50.396;8.546;2023-08-24T05:03:48;3.33;;;1.83;;
18188;SDS011;9219;50.396;8.546;2023-08-24T05:07:12;7.87;;;2.73;;
18188;SDS011;9219;50.396;8.546;2023-08-24T05:09:40;5.37;;;3.07;;
18188;SDS011;9219;50.396;8.546;2023-08-24T05:12:26;5.27;;;2.97;;
18188;SDS011;9219;50.396;8.546;2023-08-24T05:17:40;3.63;;;2.77;;
18188;SDS011;9219;50.396;8.546;2023-08-24T05:28:08;4.23;;;3.00;;
18188;SDS011;9219;50.396;8.546;2023-08-24T05:30:36;5.23;;;3.50;;
18188;SDS011;9219;50.396;8.546;2023-08-24T05:33:04;5.93;;;3.47;;
18188;SDS011;9219;50.396;8.546;2023-08-24T05:35:31;5.23;;;3.53;;
18188;SDS011;9219;50.396;8.546;2023-08-24T05:37:58;5.60;;;4.13;;
18188;SDS011;9219;50.396;8.546;2023-08-24T05:40:26;6.87;;;3.37;;
18188;SDS011;9219;50.396;8.546;2023-08-24T05:42:53;4.60;;;3.67;;
18188;SDS011;9219;50.396;8.546;2023-08-24T05:45:21;4.40;;;3.33;;
18188;SDS011;9219;50.396;8.546;2023-08-24T06:03:21;4.27;;;2.73;;
18188;SDS011;9219;50.396;8.546;2023-08-24T06:05:48;6.80;;;2.73;;
18188;SDS011;9219;50.396;8.546;2023-08-24T06:08:15;7.57;;;2.80;;
18188;SDS011;9219;50.396;8.546;2023-08-24T06:10:43;5.70;;;2.70;;
18188;SDS011;9219;50.396;8.546;2023-08-24T06:13:11;5.70;;;2.50;;
18188;SDS011;9219;50.396;8.546;2023-08-24T06:15:38;7.33;;;3.13;;
18188;SDS011;9219;50.396;8.546;2023-08-24T06:18:06;5.30;;;2.70;;
18188;SDS011;9219;50.396;8.546;2023-08-24T06:33:43;6.53;;;3.53;;
18188;SDS011;9219;50.396;8.546;2023-08-24T06:36:11;4.23;;;2.40;;
18188;SDS011;9219;50.396;8.546;2023-08-24T06:38:38;6.73;;;3.67;;
18188;SDS011;9219;50.396;8.546;2023-08-24T06:41:06;3.53;;;2.60;;
18188;SDS011;9219;50.396;8.546;2023-08-24T06:43:37;2.60;;;2.40;;
18188;SDS011;9219;50.396;8.546;2023-08-24T06:46:05;11.10;;;2.90;;
18188;SDS011;9219;50.396;8.546;2023-08-24T06:48:34;2.63;;;2.43;;
18188;SDS011;9219;50.396;8.546;2023-08-24T06:53:43;4.23;;;3.43;;
18188;SDS011;9219;50.396;8.546;2023-08-24T06:56:13;7.13;;;2.57;;
18188;SDS011;9219;50.396;8.546;2023-08-24T06:58:44;5.07;;;2.83;;
18188;SDS011;9219;50.396;8.546;2023-08-24T07:01:35;3.53;;;2.67;;
18188;SDS011;9219;50.396;8.546;2023-08-24T07:04:04;4.60;;;3.43;;
18188;SDS011;9219;50.396;8.546;2023-08-24T07:06:32;8.13;;;3.47;;
18188;SDS011;9219;50.396;8.546;2023-08-24T07:09:02;5.73;;;3.33;;
18188;SDS011;9219;50.396;8.546;2023-08-24T07:11:33;6.43;;;3.20;;
18188;SDS011;9219;50.396;8.546;2023-08-24T07:14:07;3.63;;;2.90;;
18188;SDS011;9219;50.396;8.546;2023-08-24T07:21:46;4.07;;;2.67;;
18188;SDS011;9219;50.396;8.546;2023-08-24T07:24:13;22.13;;;3.40;;
18188;SDS011;9219;50.396;8.546;2023-08-24T07:26:42;5.37;;;2.90;;
18188;SDS011;9219;50.396;8.546;2023-08-24T07:29:11;6.90;;;2.80;;
18188;SDS011;9219;50.396;8.546;2023-08-24T07:31:39;3.77;;;2.70;;
18188;SDS011;9219;50.396;8.546;2023-08-24T07:34:10;3.07;;;2.53;;
18188;SDS011;9219;50.396;8.546;2023-08-24T07:36:38;2.90;;;2.50;;
18188;SDS011;9219;50.396;8.546;2023-08-24T07:44:16;6.47;;;2.93;;
18188;SDS011;9219;50.396;8.546;2023-08-24T07:46:43;4.33;;;2.33;;
18188;SDS011;9219;50.396;8.546;2023-08-24T07:49:11;5.80;;;2.73;;
18188;SDS011;9219;50.396;8.546;2023-08-24T07:51:38;7.53;;;3.37;;
18188;SDS011;9219;50.396;8.546;2023-08-24T07:54:06;4.57;;;2.63;;
18188;SDS011;9219;50.396;8.546;2023-08-24T07:56:33;4.00;;;3.20;;
18188;SDS011;9219;50.396;8.546;2023-08-24T07:59:01;4.17;;;3.10;;
18188;SDS011;9219;50.396;8.546;2023-08-24T08:17:03;5.97;;;2.90;;
18188;SDS011;9219;50.396;8.546;2023-08-24T08:19:31;2.60;;;2.40;;
18188;SDS011;9219;50.396;8.546;2023-08-24T08:22:03;5.43;;;2.53;;
18188;SDS011;9219;50.396;8.546;2023-08-24T08:24:39;2.63;;;2.43;;
18188;SDS011;9219;50.396;8.546;2023-08-24T08:27:07;4.73;;;2.97;;
18188;SDS011;9219;50.396;8.546;2023-08-24T08:29:34;2.60;;;2.33;;
18188;SDS011;9219;50.396;8.546;2023-08-24T08:32:07;2.57;;;2.30;;
18188;SDS011;9219;50.396;8.546;2023-08-24T08:39:40;4.03;;;2.30;;
18188;SDS011;9219;50.396;8.546;2023-08-24T08:42:10;4.97;;;2.50;;
18188;SDS011;9219;50.396;8.546;2023-08-24T08:44:41;4.67;;;2.30;;
18188;SDS011;9219;50.396;8.546;2023-08-24T08:47:10;5.13;;;2.40;;
18188;SDS011;9219;50.396;8.546;2023-08-24T08:49:38;3.83;;;2.17;;
18188;SDS011;9219;50.396;8.546;2023-08-24T08:52:06;4.10;;;2.87;;
18188;SDS011;9219;50.396;8.546;2023-08-24T08:54:34;3.90;;;2.53;;
18188;SDS011;9219;50.396;8.546;2023-08-24T09:02:08;3.53;;;2.03;;
18188;SDS011;9219;50.396;8.546;2023-08-24T09:04:42;9.80;;;2.50;;
18188;SDS011;9219;50.396;8.546;2023-08-24T09:07:12;6.63;;;2.63;;
18188;SDS011;9219;50.396;8.546;2023-08-24T09:09:41;2.60;;;2.03;;
18188;SDS011;9219;50.396;8.546;2023-08-24T09:12:14;3.50;;;2.53;;
18188;SDS011;9219;50.396;8.546;2023-08-24T09:14:43;3.37;;;1.80;;
18188;SDS011;9219;50.396;8.546;2023-08-24T09:17:14;6.70;;;2.73;;
18188;SDS011;9219;50.396;8.546;2023-08-24T09:22:24;5.40;;;2.30;;
18188;SDS011;9219;50.396;8.546;2023-08-24T09:24:52;2.00;;;1.57;;
18188;SDS011;9219;50.396;8.546;2023-08-24T09:27:20;2.43;;;1.63;;
18188;SDS011;9219;50.396;8.546;2023-08-24T09:29:48;3.00;;;1.80;;
18188;SDS011;9219;50.396;8.546;2023-08-24T09:32:21;2.40;;;1.77;;
18188;SDS011;9219;50.396;8.546;2023-08-24T09:34:49;4.67;;;1.70;;
18188;SDS011;9219;50.396;8.546;2023-08-24T09:37:17;2.70;;;1.93;;
18188;SDS011;9219;50.396;8.546;2023-08-24T09:52:51;3.03;;;1.97;;
18188;SDS011;9219;50.396;8.546;2023-08-24T09:55:23;3.77;;;1.70;;
18188;SDS011;9219;50.396;8.546;2023-08-24T09:57:53;2.00;;;1.80;;
18188;SDS011;9219;50.396;8.546;2023-08-24T10:00:23;4.37;;;1.97;;
18188;SDS011;9219;50.396;8.546;2023-08-24T10:02:53;4.20;;;1.50;;
18188;SDS011;9219;50.396;8.546;2023-08-24T10:05:22;8.53;;;1.57;;
18188;SDS011;9219;50.396;8.546;2023-08-24T10:07:56;2.30;;;1.77;;
18188;SDS011;9219;50.396;8.546;2023-08-24T10:13:06;2.70;;;1.73;;
18188;SDS011;9219;50.396;8.546;2023-08-24T10:15:40;2.87;;;1.93;;
18188;SDS011;9219;50.396;8.546;2023-08-24T10:18:13;2.37;;;1.47;;
18188;SDS011;9219;50.396;8.546;2023-08-24T10:20:42;2.20;;;1.40;;
18188;SDS011;9219;50.396;8.546;2023-08-24T10:23:11;2.53;;;1.70;;
18188;SDS011;9219;50.396;8.546;2023-08-24T10:25:41;4.03;;;1.60;;
18188;SDS011;9219;50.396;8.546;2023-08-24T10:28:11;3.13;;;1.40;;
18188;SDS011;9219;50.396;8.546;2023-08-24T10:30:40;2.27;;;1.37;;
18188;SDS011;9219;50.396;8.546;2023-08-24T10:37:10;3.03;;;1.93;;
18188;SDS011;9219;50.396;8.546;2023-08-24T10:39:43;3.50;;;1.97;;
18188;SDS011;9219;50.396;8.546;2023-08-24T10:42:11;2.80;;;1.87;;
18188;SDS011;9219;50.396;8.546;2023-08-24T10:44:40;2.00;;;1.60;;
18188;SDS011;9219;50.396;8.546;2023-08-24T10:47:12;2.50;;;1.80;;
18188;SDS011;9219;50.396;8.546;2023-08-24T10:49:41;4.57;;;2.00;;
18188;SDS011;9219;50.396;8.546;2023-08-24T10:52:20;2.87;;;1.70;;
18188;SDS011;9219;50.396;8.546;2023-08-24T11:00:10;5.10;;;2.20;;
18188;SDS011;9219;50.396;8.546;2023-08-24T11:02:42;2.50;;;1.83;;
18188;SDS011;9219;50.396;8.546;2023-08-24T11:05:20;4.47;;;1.90;;
18188;SDS011;9219;50.396;8.546;2023-08-24T11:07:51;3.37;;;1.93;;
18188;SDS011;9219;50.396;8.546;2023-08-24T11:10:20;2.23;;;1.97;;
18188;SDS011;9219;50.396;8.546;2023-08-24T11:13:04;2.60;;;1.53;;
18188;SDS011;9219;50.396;8.546;2023-08-24T11:18:23;4.43;;;2.23;;
18188;SDS011;9219;50.396;8.546;2023-08-24T11:20:53;4.50;;;1.50;;
18188;SDS011;9219;50.396;8.546;2023-08-24T11:23:22;4.50;;;2.27;;
18188;SDS011;9219;50.396;8.546;2023-08-24T11:25:51;2.63;;;1.67;;
18188;SDS011;9219;50.396;8.546;2023-08-24T11:28:23;3.07;;;1.73;;
18188;SDS011;9219;50.396;8.546;2023-08-24T11:30:51;2.93;;;1.70;;
18188;SDS011;9219;50.396;8.546;2023-08-24T11:33:27;2.60;;;2.10;;
18188;SDS011;9219;50.396;8.546;2023-08-24T11:40:59;5.30;;;1.90;;
18188;SDS011;9219;50.396;8.546;2023-08-24T11:43:27;2.50;;;1.53;;
18188;SDS011;9219;50.396;8.546;2023-08-24T11:45:54;2.37;;;1.60;;
18188;SDS011;9219;50.396;8.546;2023-08-24T11:48:25;5.10;;;1.90;;
18188;SDS011;9219;50.396;8.546;2023-08-24T11:50:57;5.13;;;1.80;;
18188;SDS011;9219;50.396;8.546;2023-08-24T11:53:25;3.60;;;2.00;;
18188;SDS011;9219;50.396;8.546;2023-08-24T11:55:54;4.93;;;2.30;;
18188;SDS011;9219;50.396;8.546;2023-08-24T12:14:05;9.63;;;2.40;;
18188;SDS011;9219;50.396;8.546;2023-08-24T12:16:42;3.20;;;2.47;;
18188;SDS011;9219;50.396;8.546;2023-08-24T12:19:10;5.93;;;1.90;;
18188;SDS011;9219;50.396;8.546;2023-08-24T12:21:37;3.63;;;2.13;;
18188;SDS011;9219;50.396;8.546;2023-08-24T12:24:13;8.17;;;2.10;;
18188;SDS011;9219;50.396;8.546;2023-08-24T12:26:40;4.63;;;2.00;;
18188;SDS011;9219;50.396;8.546;2023-08-24T12:29:12;4.93;;;2.23;;
18188;SDS011;9219;50.396;8.546;2023-08-24T12:36:49;2.90;;;2.43;;
18188;SDS011;9219;50.396;8.546;2023-08-24T12:39:20;5.60;;;3.00;;
18188;SDS011;9219;50.396;8.546;2023-08-24T12:41:47;3.17;;;2.40;;
18188;SDS011;9219;50.396;8.546;2023-08-24T12:44:15;8.13;;;2.20;;
18188;SDS011;9219;50.396;8.546;2023-08-24T12:46:43;2.37;;;1.83;;
18188;SDS011;9219;50.396;8.546;2023-08-24T12:49:11;3.00;;;2.43;;
18188;SDS011;9219;50.396;8.546;2023-08-24T12:51:39;3.17;;;2.20;;
18188;SDS011;9219;50.396;8.546;2023-08-24T12:56:52;6.17;;;2.10;;
18188;SDS011;9219;50.396;8.546;2023-08-24T12:59:20;4.10;;;2.47;;
18188;SDS011;9219;50.396;8.546;2023-08-24T13:01:48;4.03;;;2.07;;
18188;SDS011;9219;50.396;8.546;2023-08-24T13:04:16;3.27;;;2.20;;
18188;SDS011;9219;50.396;8.546;2023-08-24T13:06:43;4.60;;;2.43;;
18188;SDS011;9219;50.396;8.546;2023-08-24T13:09:11;4.40;;;2.53;;
18188;SDS011;9219;50.396;8.546;2023-08-24T13:11:39;4.27;;;2.20;;
18188;SDS011;9219;50.396;8.546;2023-08-24T13:20:29;4.23;;;2.30;;
18188;SDS011;9219;50.396;8.546;2023-08-24T13:22:56;7.53;;;2.70;;
18188;SDS011;9219;50.396;8.546;2023-08-24T13:25:25;2.93;;;1.97;;
18188;SDS011;9219;50.396;8.546;2023-08-24T13:27:53;4.57;;;2.27;;
18188;SDS011;9219;50.396;8.546;2023-08-24T13:30:22;3.00;;;2.40;;
18188;SDS011;9219;50.396;8.546;2023-08-24T13:32:49;3.63;;;2.40;;
18188;SDS011;9219;50.396;8.546;2023-08-24T13:35:17;6.07;;;2.47;;
18188;SDS011;9219;50.396;8.546;2023-08-24T13:37:47;4.07;;;3.23;;
18188;SDS011;9219;50.396;8.546;2023-08-24T13:44:27;3.77;;;2.20;;
18188;SDS011;9219;50.396;8.546;2023-08-24T13:46:55;2.63;;;2.20;;
18188;SDS011;9219;50.396;8.546;2023-08-24T13:49:23;3.53;;;2.47;;
18188;SDS011;9219;50.396;8.546;2023-08-24T13:52:05;3.47;;;2.77;;
18188;SDS011;9219;50.396;8.546;2023-08-24T13:54:34;5.10;;;2.73;;
18188;SDS011;9219;50.396;8.546;2023-08-24T13:57:01;4.30;;;2.67;;
18188;SDS011;9219;50.396;8.546;2023-08-24T13:59:29;4.17;;;2.60;;
18188;SDS011;9219;50.396;8.546;2023-08-24T14:05:58;5.40;;;3.20;;
18188;SDS011;9219;50.396;8.546;2023-08-24T14:08:31;5.97;;;3.07;;
18188;SDS011;9219;50.396;8.546;2023-08-24T14:25:14;5.23;;;3.10;;
18188;SDS011;9219;50.396;8.546;2023-08-24T14:28:05;6.33;;;3.63;;
18188;SDS011;9219;50.396;8.546;2023-08-24T14:30:36;5.03;;;3.03;;
18188;SDS011;9219;50.396;8.546;2023-08-24T14:33:05;4.00;;;3.50;;
18188;SDS011;9219;50.396;8.546;2023-08-24T14:35:33;3.97;;;3.07;;
18188;SDS011;9219;50.396;8.546;2023-08-24T14:38:00;4.17;;;3.03;;
18188;SDS011;9219;50.396;8.546;2023-08-24T14:47:21;3.60;;;2.60;;
18188;SDS011;9219;50.396;8.546;2023-08-24T14:49:52;4.63;;;3.30;;
18188;SDS011;9219;50.396;8.546;2023-08-24T14:52:39;3.40;;;2.60;;
18188;SDS011;9219;50.396;8.546;2023-08-24T14:55:43;9.37;;;3.37;;
18188;SDS011;9219;50.396;8.546;2023-08-24T14:59:12;6.67;;;3.10;;
18188;SDS011;9219;50.396;8.546;2023-08-24T15:14:37;4.63;;;3.27;;
18188;SDS011;9219;50.396;8.546;2023-08-24T15:38:46;5.63;;;3.17;;
18188;SDS011;9219;50.396;8.546;2023-08-24T15:41:17;5.90;;;3.10;;
18188;SDS011;9219;50.396;8.546;2023-08-24T15:43:44;5.87;;;3.33;;
18188;SDS011;9219;50.396;8.546;2023-08-24T15:46:12;4.20;;;3.20;;
18188;SDS011;9219;50.396;8.546;2023-08-24T15:48:40;5.17;;;3.50;;
18188;SDS011;9219;50.396;8.546;2023-08-24T15:51:08;4.67;;;3.27;;
18188;SDS011;9219;50.396;8.546;2023-08-24T15:53:36;5.70;;;3.30;;
18188;SDS011;9219;50.396;8.546;2023-08-24T16:03:28;3.13;;;2.50;;
18188;SDS011;9219;50.396;8.546;2023-08-24T16:06:03;4.87;;;2.80;;
18188;SDS011;9219;50.396;8.546;2023-08-24T16:08:58;4.73;;;3.00;;
18188;SDS011;9219;50.396;8.546;2023-08-24T16:11:56;6.37;;;3.20;;
18188;SDS011;9219;50.396;8.546;2023-08-24T16:14:47;4.07;;;2.47;;
18188;SDS011;9219;50.396;8.546;2023-08-24T16:18:00;4.43;;;2.77;;
18188;SDS011;9219;50.396;8.546;2023-08-24T16:20:34;5.83;;;2.40;;
18188;SDS011;9219;50.396;8.546;2023-08-24T16:23:04;4.77;;;2.87;;
18188;SDS011;9219;50.396;8.546;2023-08-24T16:25:33;3.67;;;2.73;;
18188;SDS011;9219;50.396;8.546;2023-08-24T16:39:52;10.30;;;5.00;;
18188;SDS011;9219;50.396;8.546;2023-08-24T16:43:06;10.27;;;4.93;;
18188;SDS011;9219;50.396;8.546;2023-08-24T16:45:34;8.80;;;3.90;;
18188;SDS011;9219;50.396;8.546;2023-08-24T16:48:03;6.67;;;4.80;;
18188;SDS011;9219;50.396;8.546;2023-08-24T16:50:31;6.87;;;4.30;;
18188;SDS011;9219;50.396;8.546;2023-08-24T16:53:01;6.43;;;5.20;;
18188;SDS011;9219;50.396;8.546;2023-08-24T16:55:30;6.90;;;4.40;;
18188;SDS011;9219;50.396;8.546;2023-08-24T17:02:34;9.17;;;5.03;;
18188;SDS011;9219;50.396;8.546;2023-08-24T17:05:01;6.07;;;4.30;;
18188;SDS011;9219;50.396;8.546;2023-08-24T17:07:29;5.90;;;4.23;;
18188;SDS011;9219;50.396;8.546;2023-08-24T17:09:57;7.60;;;4.13;;
18188;SDS011;9219;50.396;8.546;2023-08-24T17:12:25;6.80;;;4.13;;
18188;SDS011;9219;50.396;8.546;2023-08-24T17:14:53;5.07;;;4.13;;
18188;SDS011;9219;50.396;8.546;2023-08-24T17:17:21;7.23;;;4.53;;
18188;SDS011;9219;50.396;8.546;2023-08-24T17:33:02;5.07;;;3.77;;
18188;SDS011;9219;50.396;8.546;2023-08-24T17:35:30;11.30;;;5.40;;
18188;SDS011;9219;50.396;8.546;2023-08-24T17:37:58;9.53;;;4.90;;
18188;SDS011;9219;50.396;8.546;2023-08-24T17:40:39;5.40;;;4.37;;
18188;SDS011;9219;50.396;8.546;2023-08-24T17:43:10;10.33;;;4.57;;
18188;SDS011;9219;50.396;8.546;2023-08-24T17:45:47;5.93;;;3.83;;
18188;SDS011;9219;50.396;8.546;2023-08-24T17:55:44;8.90;;;4.70;;
18188;SDS011;9219;50.396;8.546;2023-08-24T17:58:36;5.13;;;3.83;;
18188;SDS011;9219;50.396;8.546;2023-08-24T18:01:32;6.23;;;3.57;;
18188;SDS011;9219;50.396;8.546;2023-08-24T18:08:35;5.47;;;3.70;;
18188;SDS011;9219;50.396;8.546;2023-08-24T18:11:19;7.67;;;3.93;;
18188;SDS011;9219;50.396;8.546;2023-08-24T18:46:30;4.77;;;3.50;;
18188;SDS011;9219;50.396;8.546;2023-08-24T18:49:37;4.10;;;3.23;;
18188;SDS011;9219;50.396;8.546;2023-08-24T18:55:21;4.70;;;3.60;;
18188;SDS011;9219;50.396;8.546;2023-08-24T19:04:59;6.00;;;4.07;;
18188;SDS011;9219;50.396;8.546;2023-08-24T19:07:37;4.83;;;3.87;;
18188;SDS011;9219;50.396;8.546;2023-08-24T19:10:07;9.57;;;4.80;;
18188;SDS011;9219;50.396;8.546;2023-08-24T19:12:37;7.50;;;4.07;;
18188;SDS011;9219;50.396;8.546;2023-08-24T19:15:08;5.90;;;3.73;;
18188;SDS011;9219;50.396;8.546;2023-08-24T19:17:44;16.20;;;2.90;;
18188;SDS011;9219;50.396;8.546;2023-08-24T19:20:33;4.70;;;2.97;;
18188;SDS011;9219;50.396;8.546;2023-08-24T19:54:29;9.17;;;3.73;;
18188;SDS011;9219;50.396;8.546;2023-08-24T20:12:56;7.23;;;4.50;;
18188;SDS011;9219;50.396;8.546;2023-08-24T20:26:36;8.00;;;4.20;;
18188;SDS011;9219;50.396;8.546;2023-08-24T20:29:06;6.67;;;5.07;;
18188;SDS011;9219;50.396;8.546;2023-08-24T20:36:11;5.97;;;4.50;;
18188;SDS011;9219;50.396;8.546;2023-08-24T20:38:45;8.27;;;4.90;;
18188;SDS011;9219;50.396;8.546;2023-08-24T20:41:12;10.37;;;5.50;;
18188;SDS011;9219;50.396;8.546;2023-08-24T20:43:43;6.93;;;4.93;;
18188;SDS011;9219;50.396;8.546;2023-08-24T20:46:11;8.57;;;5.50;;
18188;SDS011;9219;50.396;8.546;2023-08-24T20:48:39;7.93;;;5.87;;
18188;SDS011;9219;50.396;8.546;2023-08-24T20:51:06;7.53;;;5.17;;
18188;SDS011;9219;50.396;8.546;2023-08-24T20:58:42;7.47;;;5.63;;
18188;SDS011;9219;50.396;8.546;2023-08-24T21:01:17;15.60;;;5.77;;
18188;SDS011;9219;50.396;8.546;2023-08-24T21:03:44;9.77;;;5.90;;
18188;SDS011;9219;50.396;8.546;2023-08-24T21:06:21;6.93;;;5.00;;
18188;SDS011;9219;50.396;8.546;2023-08-24T21:09:24;6.40;;;5.47;;
18188;SDS011;9219;50.396;8.546;2023-08-24T21:11:58;7.93;;;5.63;;
18188;SDS011;9219;50.396;8.546;2023-08-24T21:15:18;6.30;;;5.00;;
18188;SDS011;9219;50.396;8.546;2023-08-24T21:18:03;10.30;;;5.23;;
18188;SDS011;9219;50.396;8.546;2023-08-24T21:20:39;8.33;;;5.90;;
18188;SDS011;9219;50.396;8.546;2023-08-24T21:26:20;7.17;;;5.53;;
18188;SDS011;9219;50.396;8.546;2023-08-24T21:28:47;6.80;;;5.63;;
18188;SDS011;9219;50.396;8.546;2023-08-24T21:31:15;7.87;;;6.23;;
18188;SDS011;9219;50.396;8.546;2023-08-24T21:33:42;7.80;;;5.37;;
18188;SDS011;9219;50.396;8.546;2023-08-24T21:36:10;8.13;;;5.70;;
18188;SDS011;9219;50.396;8.546;2023-08-24T21:38:39;8.97;;;6.57;;
18188;SDS011;9219;50.396;8.546;2023-08-24T21:41:07;14.77;;;5.73;;
18188;SDS011;9219;50.396;8.546;2023-08-24T21:59:09;5.27;;;4.43;;
18188;SDS011;9219;50.396;8.546;2023-08-24T22:01:39;8.50;;;5.40;;
18188;SDS011;9219;50.396;8.546;2023-08-24T22:04:13;7.40;;;4.23;;
18188;SDS011;9219;50.396;8.546;2023-08-24T22:06:57;5.60;;;4.43;;
18188;SDS011;9219;50.396;8.546;2023-08-24T22:09:45;9.27;;;4.60;;
18188;SDS011;9219;50.396;8.546;2023-08-24T22:12:12;11.17;;;4.63;;
18188;SDS011;9219;50.396;8.546;2023-08-24T22:14:42;5.30;;;4.80;;
18188;SDS011;9219;50.396;8.546;2023-08-24T22:35:49;7.73;;;3.80;;
18188;SDS011;9219;50.396;8.546;2023-08-24T22:38:20;5.00;;;3.30;;
18188;SDS011;9219;50.396;8.546;2023-08-24T22:40:48;7.03;;;3.43;;
18188;SDS011;9219;50.396;8.546;2023-08-24T22:43:19;6.50;;;4.03;;
18188;SDS011;9219;50.396;8.546;2023-08-24T22:45:46;3.90;;;3.50;;
18188;SDS011;9219;50.396;8.546;2023-08-24T22:48:19;8.33;;;3.50;;
18188;SDS011;9219;50.396;8.546;2023-08-24T22:50:52;4.80;;;3.50;;
18188;SDS011;9219;50.396;8.546;2023-08-24T22:53:20;7.13;;;3.00;;
18188;SDS011;9219;50.396;8.546;2023-08-24T22:55:51;3.77;;;2.90;;
18188;SDS011;9219;50.396;8.546;2023-08-24T23:03:02;5.33;;;3.00;;
18188;SDS011;9219;50.396;8.546;2023-08-24T23:05:30;5.57;;;3.73;;
18188;SDS011;9219;50.396;8.546;2023-08-24T23:08:01;5.73;;;3.33;;
18188;SDS011;9219;50.396;8.546;2023-08-24T23:10:35;7.03;;;3.80;;
18188;SDS011;9219;50.396;8.546;2023-08-24T23:13:04;4.90;;;3.93;;
18188;SDS011;9219;50.396;8.546;2023-08-24T23:18:15;10.17;;;4.57;;